createdAt,value
2023-05-16T00:01:19.419Z,13.99
2023-05-16T00:04:21.343Z,14.00
2023-05-16T00:07:22.752Z,13.93
2023-05-16T00:10:24.291Z,13.93
2023-05-16T00:13:26.154Z,13.94
2023-05-16T00:16:29.981Z,13.92
2023-05-16T00:19:31.520Z,13.92
2023-05-16T00:22:33.179Z,13.92
2023-05-16T00:25:34.664Z,13.90
2023-05-16T00:28:36.054Z,13.85
2023-05-16T00:31:38.557Z,13.80
2023-05-16T00:34:40.275Z,13.71
2023-05-16T00:37:41.732Z,13.72
2023-05-16T00:40:43.149Z,13.72
2023-05-16T00:43:44.971Z,13.71
2023-05-16T00:46:46.461Z,13.70
2023-05-16T00:49:48.119Z,13.70
2023-05-16T00:52:51.291Z,13.71
2023-05-16T00:55:52.913Z,13.65
2023-05-16T00:58:54.336Z,13.66
2023-05-16T01:01:56.415Z,13.65
2023-05-16T01:04:58.181Z,13.64
2023-05-16T01:07:59.573Z,13.63
2023-05-16T01:11:06.220Z,13.63
2023-05-16T01:14:33.540Z,13.63
2023-05-16T01:17:57.349Z,13.65
2023-05-16T01:21:09.297Z,13.68
2023-05-16T01:24:16.022Z,13.67
2023-05-16T01:27:18.398Z,13.70
2023-05-16T01:30:20.473Z,13.67
2023-05-16T01:33:21.878Z,13.62
2023-05-16T01:36:50.765Z,13.59
2023-05-16T01:39:57.801Z,13.53
2023-05-16T01:43:03.320Z,13.52
2023-05-16T01:46:14.115Z,13.53
2023-05-16T01:49:26.591Z,13.50
2023-05-16T01:52:33.994Z,13.51
2023-05-16T01:56:00.167Z,13.52
2023-05-16T01:59:02.444Z,13.61
2023-05-16T02:02:06.970Z,13.56
2023-05-16T02:05:08.526Z,13.67
2023-05-16T02:08:11.442Z,13.76
2023-05-16T02:11:12.867Z,13.73
2023-05-16T02:14:14.498Z,13.75
2023-05-16T02:17:16.090Z,13.60
2023-05-16T02:20:17.757Z,13.55
2023-05-16T02:23:19.231Z,13.55
2023-05-16T02:26:20.811Z,13.48
2023-05-16T02:29:22.237Z,13.49
2023-05-16T02:32:24.140Z,13.50
2023-05-16T02:35:27.072Z,13.46
2023-05-16T02:38:28.703Z,13.54
2023-05-16T02:41:31.664Z,13.47
2023-05-16T02:44:33.329Z,13.41
2023-05-16T02:47:34.861Z,13.35
2023-05-16T02:50:37.449Z,13.35
2023-05-16T02:53:39.194Z,13.38
2023-05-16T02:56:40.736Z,13.34
2023-05-16T02:59:42.122Z,13.31
2023-05-16T03:02:43.905Z,13.32
2023-05-16T03:05:46.165Z,13.24
2023-05-16T03:08:47.906Z,13.18
2023-05-16T03:11:51.626Z,13.09
2023-05-16T03:14:54.611Z,13.06
2023-05-16T03:17:56.057Z,13.05
2023-05-16T03:20:58.814Z,13.04
2023-05-16T03:24:01.366Z,13.02
2023-05-16T03:27:03.676Z,12.94
2023-05-16T03:30:06.083Z,12.91
2023-05-16T03:33:07.784Z,12.88
2023-05-16T03:36:09.698Z,12.88
2023-05-16T03:39:11.390Z,12.87
2023-05-16T03:42:12.777Z,12.92
2023-05-16T03:45:14.174Z,12.82
2023-05-16T03:48:15.633Z,12.77
2023-05-16T03:51:16.990Z,12.75
2023-05-16T03:54:18.362Z,12.76
2023-05-16T03:57:19.763Z,12.74
2023-05-16T04:00:21.352Z,12.75
2023-05-16T04:03:28.273Z,12.73
2023-05-16T04:06:30.041Z,12.68
2023-05-16T04:09:31.413Z,12.70
2023-05-16T04:12:32.936Z,12.73
2023-05-16T04:15:34.345Z,12.79
2023-05-16T04:18:35.835Z,12.82
2023-05-16T04:21:37.212Z,12.79
2023-05-16T04:24:38.598Z,12.77
2023-05-16T04:27:40.030Z,12.81
2023-05-16T04:30:41.406Z,12.78
2023-05-16T04:33:43.071Z,12.76
2023-05-16T04:36:44.764Z,12.79
2023-05-16T04:39:47.385Z,12.82
2023-05-16T04:42:48.753Z,12.70
2023-05-16T04:45:50.680Z,12.60
2023-05-16T04:48:52.196Z,12.61
2023-05-16T04:51:54.343Z,12.57
2023-05-16T04:54:55.851Z,12.53
2023-05-16T04:57:57.284Z,12.48
2023-05-16T05:04:02.913Z,12.51
2023-05-16T05:07:04.522Z,12.59
2023-05-16T05:10:06.861Z,12.63
2023-05-16T05:13:11.525Z,12.57
2023-05-16T05:16:13.487Z,12.62
2023-05-16T05:19:15.038Z,12.54
2023-05-16T05:22:16.579Z,12.57
2023-05-16T05:25:18.172Z,12.60
2023-05-16T05:28:19.580Z,12.64
2023-05-16T05:31:20.988Z,12.70
2023-05-16T05:34:22.802Z,12.71
2023-05-16T05:37:24.265Z,12.74
2023-05-16T05:40:26.139Z,12.68
2023-05-16T05:43:28.058Z,12.67
2023-05-16T05:46:29.674Z,12.72
2023-05-16T05:49:31.674Z,12.79
2023-05-16T05:52:33.146Z,12.76
2023-05-16T05:55:34.752Z,12.85
2023-05-16T05:58:36.254Z,12.94
2023-05-16T06:01:38.188Z,12.98
2023-05-16T06:04:39.623Z,12.98
2023-05-16T06:07:40.998Z,13.00
2023-05-16T06:10:42.457Z,13.10
2023-05-16T06:13:43.859Z,13.19
2023-05-16T06:16:45.622Z,13.23
2023-05-16T06:19:47.112Z,13.28
2023-05-16T06:22:48.580Z,13.22
2023-05-16T06:25:50.647Z,13.28
2023-05-16T06:28:52.127Z,13.20
2023-05-16T06:31:54.009Z,13.27
2023-05-16T06:34:55.703Z,13.26
2023-05-16T06:37:57.148Z,13.40
2023-05-16T06:40:58.533Z,13.48
2023-05-16T06:44:00.136Z,13.41
2023-05-16T06:47:01.803Z,13.40
2023-05-16T06:50:03.471Z,13.46
2023-05-16T06:53:06.768Z,13.52
2023-05-16T06:56:08.270Z,13.39
2023-05-16T06:59:09.683Z,13.33
2023-05-16T07:02:11.314Z,13.32
2023-05-16T07:05:12.805Z,13.38
2023-05-16T07:08:14.218Z,13.27
2023-05-16T07:11:15.724Z,13.26
2023-05-16T07:14:17.150Z,13.41
2023-05-16T07:17:18.598Z,13.39
2023-05-16T07:20:20.128Z,13.38
2023-05-16T07:23:22.063Z,13.37
2023-05-16T07:26:23.945Z,13.45
2023-05-16T07:29:25.541Z,13.47
2023-05-16T07:32:26.986Z,13.52
2023-05-16T07:35:28.545Z,13.59
2023-05-16T07:38:30.574Z,13.65
2023-05-16T07:41:32.081Z,13.75
2023-05-16T07:44:34.096Z,13.76
2023-05-16T07:47:35.972Z,13.70
2023-05-16T07:50:37.451Z,13.67
2023-05-16T07:53:38.903Z,13.70
2023-05-16T07:56:40.367Z,13.70
2023-05-16T07:59:42.601Z,13.71
2023-05-16T08:02:44.328Z,13.65
2023-05-16T08:05:45.990Z,13.59
2023-05-16T08:08:47.594Z,13.65
2023-05-16T08:11:49.118Z,13.58
2023-05-16T08:14:50.685Z,13.56
2023-05-16T08:17:52.227Z,13.38
2023-05-16T08:20:53.710Z,13.35
2023-05-16T08:23:55.196Z,13.29
2023-05-16T08:26:56.615Z,13.31
2023-05-16T08:29:58.028Z,13.31
2023-05-16T08:32:59.518Z,13.29
2023-05-16T08:36:01.173Z,13.25
2023-05-16T08:39:02.675Z,13.26
2023-05-16T08:42:05.314Z,13.24
2023-05-16T08:45:08.023Z,13.18
2023-05-16T08:48:11.770Z,13.24
2023-05-16T08:51:15.803Z,13.15
2023-05-16T08:54:17.747Z,13.26
2023-05-16T08:57:20.161Z,13.24
2023-05-16T09:00:22.367Z,13.22
2023-05-16T09:03:25.201Z,13.57
2023-05-16T09:06:27.679Z,13.72
2023-05-16T09:09:30.191Z,13.73
2023-05-16T09:12:31.653Z,13.87
2023-05-16T09:15:34.479Z,13.91
2023-05-16T09:18:37.427Z,13.98
2023-05-16T09:21:40.010Z,14.10
2023-05-16T09:24:45.710Z,14.29
2023-05-16T09:27:48.716Z,14.38
2023-05-16T09:30:52.704Z,14.40
2023-05-16T09:33:56.655Z,14.43
2023-05-16T09:36:59.389Z,14.84
2023-05-16T09:40:00.846Z,14.99
2023-05-16T09:43:04.495Z,15.35
2023-05-16T09:46:06.428Z,15.21
2023-05-16T09:49:12.479Z,15.19
2023-05-16T09:52:14.736Z,15.51
2023-05-16T09:55:16.210Z,15.61
2023-05-16T09:58:18.412Z,15.10
2023-05-16T10:01:20.234Z,14.65
2023-05-16T10:04:21.884Z,14.48
2023-05-16T10:07:23.567Z,15.00
2023-05-16T10:10:25.328Z,15.03
2023-05-16T10:13:32.006Z,14.68
2023-05-16T10:16:34.881Z,14.62
2023-05-16T10:19:38.972Z,14.54
2023-05-16T10:22:43.800Z,14.47
2023-05-16T10:25:47.316Z,13.85
2023-05-16T10:28:50.696Z,13.72
2023-05-16T10:31:52.838Z,13.54
2023-05-16T10:34:55.911Z,13.31
2023-05-16T10:37:58.751Z,13.11
2023-05-16T10:41:00.729Z,13.05
2023-05-16T10:44:02.909Z,13.29
2023-05-16T10:47:04.724Z,13.23
2023-05-16T10:50:06.873Z,13.31
2023-05-16T10:53:37.217Z,13.57
2023-05-16T10:56:38.941Z,13.80
2023-05-16T10:59:44.871Z,14.00
2023-05-16T11:02:46.501Z,13.97
2023-05-16T11:05:52.416Z,14.01
2023-05-16T11:09:10.072Z,14.05
2023-05-16T11:12:12.762Z,13.85
2023-05-16T11:15:29.085Z,13.84
2023-05-16T11:18:33.153Z,13.77
2023-05-16T11:22:19.765Z,13.70
2023-05-16T11:25:36.192Z,13.57
2023-05-16T11:28:37.754Z,13.55
2023-05-16T11:31:40.383Z,13.53
2023-05-16T11:34:45.184Z,13.35
2023-05-16T11:37:47.694Z,13.37
2023-05-16T11:40:49.169Z,13.28
2023-05-16T11:43:50.633Z,13.46
2023-05-16T11:46:52.259Z,13.44
2023-05-16T11:49:58.131Z,13.47
2023-05-16T11:52:59.851Z,13.64
2023-05-16T11:56:02.181Z,13.59
2023-05-16T11:59:03.895Z,13.80
2023-05-16T12:02:05.997Z,13.56
2023-05-16T12:05:09.982Z,13.59
2023-05-16T12:08:11.561Z,13.51
2023-05-16T12:11:13.151Z,13.68
2023-05-16T12:14:19.062Z,13.78
2023-05-16T12:17:22.228Z,14.06
2023-05-16T12:20:25.884Z,14.26
2023-05-16T12:23:27.932Z,13.99
2023-05-16T12:26:33.605Z,14.10
2023-05-16T12:29:35.226Z,14.12
2023-05-16T12:32:37.675Z,13.96
2023-05-16T12:35:48.473Z,14.09
2023-05-16T12:38:51.281Z,14.18
2023-05-16T12:41:52.925Z,14.25
2023-05-16T12:44:57.655Z,14.02
2023-05-16T12:48:05.529Z,14.14
2023-05-16T12:51:14.745Z,14.15
2023-05-16T12:54:16.559Z,14.41
2023-05-16T12:57:19.723Z,14.23
2023-05-16T13:00:21.646Z,13.83
2023-05-16T13:03:23.209Z,13.87
2023-05-16T13:06:24.793Z,13.74
2023-05-16T13:09:29.077Z,13.74
2023-05-16T13:12:32.279Z,13.67
2023-05-16T13:15:33.726Z,13.61
2023-05-16T13:18:36.478Z,13.71
2023-05-16T13:21:37.952Z,13.73
2023-05-16T13:24:39.374Z,13.92
2023-05-16T13:27:40.804Z,13.92
2023-05-16T13:30:42.285Z,14.25
2023-05-16T13:33:43.735Z,14.23
2023-05-16T13:36:54.078Z,14.30
2023-05-16T13:39:56.356Z,14.26
2023-05-16T13:42:57.844Z,14.45
2023-05-16T13:45:59.363Z,14.66
2023-05-16T13:49:01.994Z,14.57
2023-05-16T13:52:03.644Z,14.38
2023-05-16T13:55:05.503Z,14.55
2023-05-16T13:58:06.928Z,14.57
2023-05-16T14:01:08.420Z,14.62
2023-05-16T14:04:10.006Z,14.58
2023-05-16T14:07:11.604Z,14.50
2023-05-16T14:10:13.082Z,14.69
2023-05-16T14:13:14.733Z,14.87
2023-05-16T14:16:16.314Z,14.93
2023-05-16T14:19:19.417Z,14.84
2023-05-16T14:22:21.212Z,14.83
2023-05-16T14:25:22.683Z,15.02
2023-05-16T14:28:24.100Z,15.03
2023-05-16T14:31:25.761Z,15.13
2023-05-16T14:34:27.259Z,15.02
2023-05-16T14:37:28.711Z,15.06
2023-05-16T14:40:30.305Z,15.36
2023-05-16T14:43:32.389Z,15.43
2023-05-16T14:46:33.903Z,15.60
2023-05-16T14:49:35.650Z,15.70
2023-05-16T14:52:40.025Z,15.69
2023-05-16T14:55:41.565Z,15.68
2023-05-16T14:58:43.137Z,16.14
2023-05-16T15:01:44.596Z,16.54
2023-05-16T15:04:46.323Z,16.73
2023-05-16T15:07:48.091Z,17.08
2023-05-16T15:10:49.622Z,16.81
2023-05-16T15:13:51.084Z,16.72
2023-05-16T15:16:52.725Z,17.17
2023-05-16T15:19:54.344Z,16.92
2023-05-16T15:22:55.974Z,16.53
2023-05-16T15:25:57.533Z,16.42
2023-05-16T15:28:59.194Z,16.87
2023-05-16T15:32:05.033Z,17.01
2023-05-16T15:35:07.373Z,17.13
2023-05-16T15:38:08.830Z,17.27
2023-05-16T15:41:23.978Z,17.29
2023-05-16T15:44:32.268Z,16.90
2023-05-16T15:47:33.725Z,16.90
2023-05-16T15:50:35.346Z,16.84
2023-05-16T15:53:36.883Z,16.94
2023-05-16T15:56:38.347Z,17.14
2023-05-16T15:59:41.500Z,17.56
2023-05-16T16:02:45.282Z,18.11
2023-05-16T16:05:48.210Z,18.24
2023-05-16T16:08:49.766Z,18.28
2023-05-16T16:11:56.379Z,18.03
2023-05-16T16:14:58.222Z,17.49
2023-05-16T16:18:00.502Z,17.79
2023-05-16T16:21:02.343Z,17.57
2023-05-16T16:24:04.748Z,17.70
2023-05-16T16:27:06.247Z,18.02
2023-05-16T16:30:09.045Z,18.19
2023-05-16T16:33:10.867Z,18.24
2023-05-16T16:36:12.321Z,18.05
2023-05-16T16:39:13.740Z,17.64
2023-05-16T16:42:15.210Z,17.40
2023-05-16T16:45:16.763Z,17.53
2023-05-16T16:48:18.247Z,17.35
2023-05-16T16:51:19.742Z,17.17
2023-05-16T16:54:22.291Z,17.14
2023-05-16T16:57:23.714Z,17.08
2023-05-16T17:00:25.156Z,17.09
2023-05-16T17:03:26.908Z,16.83
2023-05-16T17:06:30.883Z,17.11
2023-05-16T17:09:32.423Z,17.35
2023-05-16T17:12:34.957Z,17.38
2023-05-16T17:15:37.473Z,17.30
2023-05-16T17:18:40.536Z,16.97
2023-05-16T17:21:43.489Z,16.97
2023-05-16T17:24:45.383Z,16.73
2023-05-16T17:27:47.335Z,16.75
2023-05-16T17:30:49.183Z,16.82
2023-05-16T17:33:51.203Z,16.99
2023-05-16T17:36:53.334Z,17.14
2023-05-16T17:39:55.265Z,17.14
2023-05-16T17:42:57.047Z,17.01
2023-05-16T17:45:58.867Z,17.01
2023-05-16T17:49:00.485Z,16.70
2023-05-16T17:52:02.628Z,16.49
2023-05-16T17:55:05.981Z,16.44
2023-05-16T17:58:09.359Z,16.35
2023-05-16T18:01:11.084Z,16.28
2023-05-16T18:04:13.127Z,16.27
2023-05-16T18:07:14.785Z,16.33
2023-05-16T18:10:16.459Z,16.29
2023-05-16T18:13:17.997Z,16.26
2023-05-16T18:16:19.482Z,16.19
2023-05-16T18:19:21.078Z,16.12
2023-05-16T18:22:22.564Z,16.06
2023-05-16T18:25:24.527Z,16.09
2023-05-16T18:28:26.176Z,16.04
2023-05-16T18:31:27.738Z,15.92
2023-05-16T18:34:29.175Z,15.78
2023-05-16T18:37:31.670Z,15.78
2023-05-16T18:40:33.107Z,15.81
2023-05-16T18:43:36.484Z,15.73
2023-05-16T18:46:38.041Z,15.73
2023-05-16T18:49:39.542Z,15.63
2023-05-16T18:52:41.459Z,15.51
2023-05-16T18:55:42.891Z,15.44
2023-05-16T18:58:44.433Z,15.28
2023-05-16T19:01:46.316Z,15.28
2023-05-16T19:04:47.873Z,15.29
2023-05-16T19:07:49.387Z,15.30
2023-05-16T19:10:51.077Z,15.20
2023-05-16T19:13:52.582Z,15.19
2023-05-16T19:16:54.018Z,15.14
2023-05-16T19:19:56.414Z,15.08
2023-05-16T19:22:57.870Z,14.99
2023-05-16T19:26:00.353Z,14.91
2023-05-16T19:29:02.491Z,14.82
2023-05-16T19:32:04.209Z,14.72
2023-05-16T19:35:07.319Z,14.77
2023-05-16T19:38:08.794Z,14.84
2023-05-16T19:41:10.224Z,14.89
2023-05-16T19:44:11.646Z,14.82
2023-05-16T19:47:13.204Z,14.77
2023-05-16T19:50:14.841Z,14.72
2023-05-16T19:53:17.291Z,14.71
2023-05-16T19:56:18.878Z,14.60
2023-05-16T19:59:20.846Z,14.45
2023-05-16T20:02:24.392Z,14.28
2023-05-16T20:05:27.026Z,14.14
2023-05-16T20:08:30.419Z,14.08
2023-05-16T20:11:31.873Z,14.01
2023-05-16T20:14:33.991Z,13.97
2023-05-16T20:17:35.651Z,13.94
2023-05-16T20:20:37.759Z,13.90
2023-05-16T20:23:40.955Z,13.87
2023-05-16T20:26:43.358Z,13.85
2023-05-16T20:29:45.110Z,13.82
2023-05-16T20:32:46.604Z,13.72
2023-05-16T20:35:48.207Z,13.60
2023-05-16T20:38:50.783Z,13.56
2023-05-16T20:41:52.927Z,13.45
2023-05-16T20:44:55.306Z,13.37
2023-05-16T20:47:59.929Z,13.30
2023-05-16T20:51:01.517Z,13.23
2023-05-16T20:54:03.034Z,13.16
2023-05-16T20:57:04.893Z,13.12
2023-05-16T21:00:08.851Z,13.07
2023-05-16T21:03:12.382Z,13.02
2023-05-16T21:06:13.873Z,13.02
2023-05-16T21:09:15.593Z,12.96
2023-05-16T21:12:17.092Z,12.90
2023-05-16T21:15:19.447Z,12.84
2023-05-16T21:18:22.596Z,12.79
2023-05-16T21:21:24.300Z,12.71
2023-05-16T21:24:25.777Z,12.58
2023-05-16T21:27:27.189Z,12.51
2023-05-16T21:30:28.640Z,12.44
2023-05-16T21:33:30.143Z,12.37
2023-05-16T21:36:31.620Z,12.33
2023-05-16T21:39:33.125Z,12.20
2023-05-16T21:42:35.987Z,12.09
2023-05-16T21:45:37.413Z,12.06
2023-05-16T21:48:38.934Z,11.98
2023-05-16T21:51:40.446Z,12.01
2023-05-16T21:54:41.975Z,11.93
2023-05-16T21:57:43.410Z,11.84
2023-05-16T22:00:45.025Z,11.75
2023-05-16T22:03:47.302Z,11.64
2023-05-16T22:06:48.867Z,11.58
2023-05-16T22:09:53.437Z,11.59
2023-05-16T22:12:54.870Z,11.55
2023-05-16T22:19:04.717Z,11.46
2023-05-16T22:22:06.347Z,11.37
2023-05-16T22:25:08.462Z,11.34
2023-05-16T22:28:09.929Z,11.31
2023-05-16T22:31:11.388Z,11.22
2023-05-16T22:34:12.896Z,11.11
2023-05-16T22:37:14.345Z,11.06
2023-05-16T22:40:15.913Z,11.07
2023-05-16T22:43:17.324Z,11.04
2023-05-16T22:46:18.749Z,11.01
2023-05-16T22:49:20.277Z,11.01
2023-05-16T22:52:22.113Z,11.00
2023-05-16T22:55:23.650Z,11.00
2023-05-16T22:58:25.125Z,10.99
2023-05-16T23:01:26.696Z,10.97
2023-05-16T23:04:28.136Z,10.88
2023-05-16T23:07:30.200Z,10.84
2023-05-16T23:10:32.239Z,10.79
2023-05-16T23:13:33.782Z,10.68
2023-05-16T23:16:35.297Z,10.63
2023-05-16T23:19:36.918Z,10.63
2023-05-16T23:22:38.460Z,10.64
2023-05-16T23:25:40.004Z,10.64
2023-05-16T23:28:41.423Z,10.57
2023-05-16T23:31:42.851Z,10.53
2023-05-16T23:34:44.695Z,10.42
2023-05-16T23:37:46.112Z,10.39
2023-05-16T23:40:47.521Z,10.33
2023-05-16T23:43:48.942Z,10.23
2023-05-16T23:46:50.540Z,10.20
2023-05-16T23:49:51.993Z,10.15
2023-05-16T23:52:54.063Z,10.11
2023-05-16T23:55:55.711Z,10.06
2023-05-16T23:58:57.184Z,10.12
